Time;durP1;ratioP1;P1;durP2;ratioP2;P2;SDS_P1;SDS_P2;PMS_P1;PMS_P2;Temp;Humidity;BMP_temperature;BMP_pressure;BME280_temperature;BME280_humidity;BME280_pressure;Samples;Min_cycle;Max_cycle;Signal;HPM_P1;HPM_P2
2023/05/15 00:02:22;;;;;;;12.80;12.00;;;12.50;99.90;;;;;;5001965;28;20277;-47
2023/05/15 00:04:47;;;;;;;12.87;11.97;;;12.40;99.90;;;;;;5000813;28;20690;-51
2023/05/15 00:07:13;;;;;;;13.00;12.20;;;12.40;99.90;;;;;;5000892;28;20191;-49
2023/05/15 00:09:39;;;;;;;13.30;12.20;;;12.30;99.90;;;;;;5000843;28;20535;-50
2023/05/15 00:12:05;;;;;;;12.63;11.83;;;12.30;99.90;;;;;;4999402;28;20184;-48
2023/05/15 00:14:30;;;;;;;12.63;11.80;;;12.20;99.90;;;;;;5000282;28;20210;-48
2023/05/15 00:16:56;;;;;;;13.27;12.47;;;12.20;99.90;;;;;;5001360;28;20442;-49
2023/05/15 00:19:21;;;;;;;13.57;12.67;;;12.10;99.90;;;;;;5001549;28;20777;-49
2023/05/15 00:21:47;;;;;;;12.97;12.07;;;12.10;99.90;;;;;;5000619;28;20268;-48
2023/05/15 00:24:12;;;;;;;13.37;12.50;;;12.00;99.90;;;;;;5001199;28;20222;-47
2023/05/15 00:26:38;;;;;;;12.83;11.93;;;12.00;99.90;;;;;;5001678;28;20717;-51
2023/05/15 00:29:04;;;;;;;13.50;12.50;;;11.90;99.90;;;;;;5000941;28;20254;-49
2023/05/15 00:31:29;;;;;;;13.50;12.67;;;11.90;99.90;;;;;;5001288;28;20234;-50
2023/05/15 00:33:55;;;;;;;12.67;11.87;;;11.80;99.90;;;;;;5001328;28;20658;-48
2023/05/15 00:36:21;;;;;;;12.90;12.07;;;11.80;99.90;;;;;;5000573;28;20195;-49
2023/05/15 00:38:47;;;;;;;12.97;12.03;;;11.80;99.90;;;;;;5001493;28;20191;-47
2023/05/15 00:41:14;;;;;;;12.73;11.87;;;11.70;99.90;;;;;;5001422;28;20445;-47
2023/05/15 00:43:41;;;;;;;13.10;12.20;;;11.70;99.90;;;;;;5000853;28;20265;-49
2023/05/15 00:46:07;;;;;;;12.97;12.17;;;11.60;99.90;;;;;;4998893;28;20442;-49
2023/05/15 00:48:33;;;;;;;13.30;12.50;;;11.60;99.90;;;;;;4999514;28;20487;-46
2023/05/15 00:50:59;;;;;;;13.80;12.90;;;11.60;99.90;;;;;;5001193;28;20462;-48
2023/05/15 00:53:26;;;;;;;12.77;11.97;;;11.50;99.90;;;;;;5001116;28;20434;-48
2023/05/15 00:55:56;;;;;;;13.30;12.30;;;11.60;99.90;;;;;;5001374;28;20615;-45
2023/05/15 00:58:23;;;;;;;13.20;12.30;;;11.50;99.90;;;;;;5001052;28;20476;-50
2023/05/15 01:00:49;;;;;;;13.40;12.50;;;11.50;99.90;;;;;;5001338;28;20529;-51
2023/05/15 01:03:15;;;;;;;12.97;12.17;;;11.50;99.90;;;;;;4983004;28;20462;-52
2023/05/15 01:05:41;;;;;;;12.60;11.70;;;11.50;99.90;;;;;;5000677;28;20707;-46
2023/05/15 01:08:47;;;;;;;13.37;12.47;;;11.50;99.90;;;;;;5000727;28;20434;-50
2023/05/15 01:11:14;;;;;;;13.47;12.40;;;11.50;99.90;;;;;;4956883;28;20442;-49
2023/05/15 01:13:40;;;;;;;12.43;11.60;;;11.50;99.90;;;;;;5000660;28;20432;-47
2023/05/15 01:16:07;;;;;;;13.20;12.30;;;11.40;99.90;;;;;;4999580;28;20919;-48
2023/05/15 01:18:33;;;;;;;12.83;12.03;;;11.40;99.90;;;;;;5001322;28;20434;-48
2023/05/15 01:21:06;;;;;;;12.00;11.20;;;11.50;99.90;;;;;;5000408;28;20410;-45
2023/05/15 01:23:47;;;;;;;12.97;11.97;;;11.50;99.90;;;;;;5000596;28;20884;-48
2023/05/15 01:26:20;;;;;;;12.90;12.00;;;11.50;99.90;;;;;;5000528;28;20410;-47
2023/05/15 01:28:56;;;;;;;13.10;12.20;;;11.50;99.90;;;;;;5000353;28;20480;-47
2023/05/15 01:31:25;;;;;;;13.70;12.70;;;11.50;99.90;;;;;;5000744;28;20516;-50
2023/05/15 01:33:54;;;;;;;13.77;12.83;;;11.50;99.90;;;;;;5000618;28;20909;-45
2023/05/15 01:36:33;;;;;;;13.77;12.77;;;11.60;99.90;;;;;;5000197;28;20836;-47
2023/05/15 01:39:02;;;;;;;13.00;12.07;;;11.60;99.90;;;;;;5000544;28;20422;-49
2023/05/15 01:41:45;;;;;;;12.60;11.80;;;11.60;99.90;;;;;;5000750;28;20438;-48
2023/05/15 01:44:18;;;;;;;13.43;12.53;;;11.70;99.90;;;;;;4999516;28;20829;-49
2023/05/15 01:46:48;;;;;;;13.13;12.30;;;11.70;99.90;;;;;;4999547;28;20461;-49
2023/05/15 01:49:17;;;;;;;12.23;11.33;;;11.70;99.90;;;;;;5000399;28;20504;-52
2023/05/15 01:51:46;;;;;;;12.53;11.70;;;11.80;99.90;;;;;;4998839;28;20816;-50
2023/05/15 01:54:14;;;;;;;12.80;11.90;;;11.80;99.90;;;;;;4999780;28;20903;-47
2023/05/15 01:56:44;;;;;;;13.43;12.53;;;11.80;99.90;;;;;;4999579;28;20758;-49
2023/05/15 01:59:14;;;;;;;12.77;11.90;;;11.70;99.90;;;;;;4999170;28;20438;-46
2023/05/15 02:01:41;;;;;;;12.77;11.87;;;11.80;99.90;;;;;;4998221;28;20469;-46
2023/05/15 02:04:08;;;;;;;12.30;11.50;;;11.80;99.90;;;;;;4998656;28;20477;-48
2023/05/15 02:06:34;;;;;;;13.03;12.13;;;11.80;99.90;;;;;;4999419;28;20442;-45
2023/05/15 02:09:02;;;;;;;13.23;12.23;;;11.80;99.90;;;;;;4999807;28;20900;-47
2023/05/15 02:11:27;;;;;;;13.17;12.27;;;11.80;99.90;;;;;;4999858;28;21014;-49
2023/05/15 02:13:56;;;;;;;13.57;12.67;;;11.80;99.90;;;;;;4998929;28;20450;-49
2023/05/15 02:16:22;;;;;;;12.93;12.03;;;11.80;99.90;;;;;;4999814;28;20634;-49
2023/05/15 02:18:48;;;;;;;13.23;12.30;;;11.80;99.90;;;;;;4999603;28;20750;-48
2023/05/15 02:21:15;;;;;;;12.40;11.60;;;11.80;99.90;;;;;;4999729;28;20190;-50
2023/05/15 02:23:40;;;;;;;13.13;12.23;;;11.80;99.90;;;;;;4999704;28;20519;-46
2023/05/15 02:26:20;;;;;;;13.00;12.17;;;11.80;99.90;;;;;;4999776;28;20422;-47
2023/05/15 02:29:09;;;;;;;12.70;11.80;;;11.80;99.90;;;;;;4999450;28;20183;-50
2023/05/15 02:31:39;;;;;;;12.63;11.73;;;11.70;99.90;;;;;;4999651;28;20422;-46
2023/05/15 02:34:33;;;;;;;13.20;12.20;;;11.70;99.90;;;;;;4999439;28;20437;-50
2023/05/15 02:37:01;;;;;;;12.93;11.93;;;11.70;99.90;;;;;;4999835;28;20928;-49
2023/05/15 02:39:28;;;;;;;12.90;12.00;;;11.70;99.90;;;;;;4999791;28;20992;-47
2023/05/15 02:41:56;;;;;;;12.70;11.80;;;11.80;99.90;;;;;;4999038;28;20539;-49
2023/05/15 02:44:22;;;;;;;13.37;12.37;;;11.80;99.90;;;;;;4998751;28;20480;-48
2023/05/15 02:46:49;;;;;;;13.20;12.30;;;11.80;99.90;;;;;;4999093;28;20556;-47
2023/05/15 02:49:15;;;;;;;13.73;12.77;;;11.80;99.90;;;;;;4999459;28;20428;-48
2023/05/15 02:51:41;;;;;;;12.47;11.50;;;11.80;99.90;;;;;;4999110;28;20422;-47
2023/05/15 02:54:08;;;;;;;12.50;11.60;;;11.80;99.90;;;;;;4999457;28;20245;-48
2023/05/15 02:56:34;;;;;;;13.70;12.60;;;11.70;99.90;;;;;;4999457;28;20417;-46
2023/05/15 02:58:59;;;;;;;13.70;12.70;;;11.70;99.90;;;;;;4999253;28;20909;-48
2023/05/15 03:01:25;;;;;;;13.13;12.10;;;11.70;99.90;;;;;;4999054;28;20195;-47
2023/05/15 03:03:51;;;;;;;12.60;11.70;;;11.60;99.90;;;;;;4999222;28;20703;-47
2023/05/15 03:06:17;;;;;;;13.47;12.37;;;11.60;99.90;;;;;;4999114;28;20263;-49
2023/05/15 03:08:43;;;;;;;13.43;12.53;;;11.60;99.90;;;;;;4999007;28;20604;-49
2023/05/15 03:11:09;;;;;;;12.17;11.27;;;11.60;99.90;;;;;;4998881;28;20454;-50
2023/05/15 03:13:34;;;;;;;14.33;13.23;;;11.60;99.90;;;;;;5002291;28;20438;-49
2023/05/15 03:16:00;;;;;;;13.33;12.43;;;11.60;99.90;;;;;;5002392;28;20450;-46
2023/05/15 03:18:26;;;;;;;12.83;11.83;;;11.60;99.90;;;;;;5002080;28;20198;-49
2023/05/15 03:20:51;;;;;;;12.70;11.80;;;11.50;99.90;;;;;;5002270;28;20719;-50
2023/05/15 03:23:17;;;;;;;12.30;11.40;;;11.60;99.90;;;;;;5001225;28;20421;-48
2023/05/15 03:25:43;;;;;;;13.00;12.10;;;11.60;99.90;;;;;;5002680;28;20194;-49
2023/05/15 03:28:09;;;;;;;14.17;12.97;;;11.60;99.90;;;;;;5002399;28;20410;-47
2023/05/15 03:30:35;;;;;;;13.17;12.30;;;11.70;99.90;;;;;;5002722;28;20605;-51
2023/05/15 03:33:02;;;;;;;14.00;13.00;;;11.60;99.90;;;;;;5002722;28;20676;-48
2023/05/15 03:35:29;;;;;;;12.97;12.03;;;11.60;99.90;;;;;;5002704;28;20188;-47
2023/05/15 03:37:55;;;;;;;13.03;12.03;;;11.50;99.90;;;;;;4984877;28;20444;-47
2023/05/15 03:40:20;;;;;;;13.83;12.83;;;11.50;99.90;;;;;;5003029;28;20422;-47
2023/05/15 03:42:46;;;;;;;13.07;12.17;;;11.50;99.90;;;;;;5001554;28;20183;-49
2023/05/15 03:45:11;;;;;;;13.27;12.37;;;11.50;99.90;;;;;;5002043;28;20223;-46
2023/05/15 03:47:37;;;;;;;13.10;12.10;;;11.60;99.90;;;;;;5001536;28;20202;-47
2023/05/15 03:50:03;;;;;;;13.63;12.63;;;11.60;99.90;;;;;;5002071;28;20262;-46
2023/05/15 03:52:28;;;;;;;12.87;11.87;;;11.60;99.90;;;;;;5002313;28;20298;-51
2023/05/15 03:54:54;;;;;;;12.40;11.40;;;11.50;99.90;;;;;;5002720;28;20689;-45
2023/05/15 03:57:19;;;;;;;12.30;11.40;;;11.60;99.90;;;;;;4984248;28;20187;-47
2023/05/15 03:59:45;;;;;;;12.50;11.60;;;11.60;99.90;;;;;;5002139;28;20209;-46
2023/05/15 04:02:11;;;;;;;11.97;11.07;;;11.60;99.90;;;;;;5002344;28;20191;-50
2023/05/15 04:04:37;;;;;;;12.33;11.23;;;11.60;99.90;;;;;;5002445;28;20203;-49
2023/05/15 04:07:04;;;;;;;13.07;12.17;;;11.60;99.90;;;;;;5002087;28;20179;-47
2023/05/15 04:09:29;;;;;;;12.70;11.80;;;11.60;99.90;;;;;;5002165;28;20457;-47
2023/05/15 04:11:55;;;;;;;12.40;11.50;;;11.60;99.90;;;;;;5002740;28;20461;-49
2023/05/15 04:14:20;;;;;;;12.10;11.30;;;11.60;99.90;;;;;;5002462;28;20187;-46
2023/05/15 04:16:46;;;;;;;13.13;12.23;;;11.60;99.90;;;;;;5002865;28;20187;-50
2023/05/15 04:19:12;;;;;;;12.87;12.00;;;11.70;99.90;;;;;;5002436;28;20257;-46
2023/05/15 04:21:37;;;;;;;12.70;11.80;;;11.70;99.90;;;;;;5002727;28;20265;-46
2023/05/15 04:24:03;;;;;;;13.00;12.10;;;11.70;99.90;;;;;;5002479;28;20207;-47
2023/05/15 04:26:29;;;;;;;13.60;12.60;;;11.80;99.90;;;;;;5002125;28;20243;-49
2023/05/15 04:28:55;;;;;;;12.93;12.00;;;11.80;99.90;;;;;;5002067;28;20703;-48
2023/05/15 04:31:22;;;;;;;14.40;13.30;;;11.80;99.90;;;;;;5001739;28;20976;-47
2023/05/15 04:33:47;;;;;;;13.90;12.90;;;11.80;99.90;;;;;;4999931;28;20446;-46
2023/05/15 04:36:13;;;;;;;13.50;12.50;;;11.80;99.90;;;;;;4999772;28;20948;-45
2023/05/15 04:38:38;;;;;;;14.77;13.67;;;11.90;99.90;;;;;;5000339;28;20203;-50
2023/05/15 04:41:04;;;;;;;14.97;13.87;;;11.90;99.90;;;;;;5001613;28;20672;-47
2023/05/15 04:43:30;;;;;;;15.33;14.13;;;11.90;99.90;;;;;;5002192;28;20233;-49
2023/05/15 04:45:56;;;;;;;15.07;14.07;;;11.90;99.90;;;;;;5001205;28;20190;-50
2023/05/15 04:48:21;;;;;;;15.23;14.13;;;12.00;99.90;;;;;;5002541;28;20492;-48
2023/05/15 04:50:47;;;;;;;15.17;14.17;;;12.00;99.90;;;;;;5002268;28;20226;-48
2023/05/15 04:53:13;;;;;;;14.87;13.87;;;12.00;99.90;;;;;;5000096;28;20183;-45
2023/05/15 04:55:39;;;;;;;15.30;14.27;;;12.00;99.90;;;;;;5000669;28;20178;-49
2023/05/15 04:58:04;;;;;;;15.77;14.67;;;12.10;99.90;;;;;;5002433;28;20425;-48
2023/05/15 05:00:30;;;;;;;16.10;15.00;;;12.10;99.90;;;;;;4983396;28;20529;-45
2023/05/15 05:02:56;;;;;;;14.60;13.60;;;12.10;99.90;;;;;;5001980;28;20650;-48
2023/05/15 05:05:22;;;;;;;17.17;15.97;;;12.10;99.90;;;;;;5002380;28;20431;-45
2023/05/15 05:07:50;;;;;;;16.53;15.33;;;12.10;99.90;;;;;;5001828;28;20179;-51
2023/05/15 05:10:16;;;;;;;16.40;15.40;;;12.20;99.90;;;;;;5001322;28;20242;-47
2023/05/15 05:12:41;;;;;;;15.30;14.30;;;12.30;99.90;;;;;;5002095;28;20422;-45
2023/05/15 05:15:08;;;;;;;16.73;15.70;;;12.30;99.90;;;;;;5001131;28;20449;-47
2023/05/15 05:17:33;;;;;;;16.07;14.97;;;12.30;99.90;;;;;;5001888;28;20220;-47
2023/05/15 05:19:59;;;;;;;17.30;16.10;;;12.40;99.90;;;;;;5001818;28;20891;-50
2023/05/15 05:22:25;;;;;;;16.03;14.93;;;12.40;99.90;;;;;;4983922;28;20195;-47
2023/05/15 05:24:50;;;;;;;17.00;15.80;;;12.50;99.90;;;;;;5000748;28;20226;-46
2023/05/15 05:27:16;;;;;;;16.87;15.77;;;12.50;99.90;;;;;;4999823;28;20195;-48
2023/05/15 05:29:42;;;;;;;16.13;14.87;;;12.60;99.90;;;;;;5000599;28;20497;-46
2023/05/15 05:32:07;;;;;;;16.40;15.10;;;12.70;99.90;;;;;;5001355;28;20198;-49
2023/05/15 05:34:34;;;;;;;16.73;15.33;;;12.70;99.90;;;;;;5001191;28;20191;-48
2023/05/15 05:37:00;;;;;;;17.40;16.20;;;12.80;99.90;;;;;;5001704;28;20176;-49
2023/05/15 05:39:25;;;;;;;17.30;15.90;;;12.90;99.90;;;;;;5001167;28;20504;-47
2023/05/15 05:41:51;;;;;;;16.63;15.53;;;13.00;99.90;;;;;;5000777;28;20437;-48
2023/05/15 05:44:16;;;;;;;17.87;16.70;;;13.00;99.90;;;;;;4998955;28;20203;-48
2023/05/15 05:46:42;;;;;;;17.37;16.30;;;13.00;99.90;;;;;;5000357;28;20737;-48
2023/05/15 05:49:07;;;;;;;17.97;16.77;;;13.10;99.90;;;;;;4999772;28;20186;-47
2023/05/15 05:51:36;;;;;;;17.30;16.00;;;13.10;99.90;;;;;;5000786;28;20223;-48
2023/05/15 05:54:02;;;;;;;17.13;16.10;;;13.10;99.90;;;;;;5001232;28;20187;-58
2023/05/15 05:56:27;;;;;;;17.50;16.30;;;13.20;99.90;;;;;;5001014;28;20472;-59
2023/05/15 05:58:55;;;;;;;17.37;16.17;;;13.20;99.90;;;;;;5001402;28;20191;-60
2023/05/15 06:01:21;;;;;;;17.60;16.50;;;13.20;99.90;;;;;;5001078;28;20186;-59
2023/05/15 06:03:46;;;;;;;16.70;15.70;;;13.30;99.90;;;;;;5000946;28;21137;-59
2023/05/15 06:06:12;;;;;;;15.87;14.87;;;13.30;99.90;;;;;;5001242;28;20934;-59
2023/05/15 06:08:38;;;;;;;16.53;15.33;;;13.40;99.90;;;;;;5001148;28;20542;-60
2023/05/15 06:11:04;;;;;;;16.20;15.20;;;13.40;99.90;;;;;;5000972;28;21264;-59
2023/05/15 06:13:30;;;;;;;17.10;16.00;;;13.40;99.90;;;;;;5001103;28;20187;-60
2023/05/15 06:15:56;;;;;;;16.57;15.57;;;13.40;99.90;;;;;;4998828;28;20623;-61
2023/05/15 06:18:21;;;;;;;17.37;16.17;;;13.50;99.90;;;;;;5001075;28;20422;-58
2023/05/15 06:20:47;;;;;;;18.77;17.17;;;13.50;99.90;;;;;;5000653;28;20253;-60
2023/05/15 06:23:12;;;;;;;18.67;17.37;;;13.60;99.90;;;;;;5000861;28;20384;-60
2023/05/15 06:25:38;;;;;;;18.27;17.00;;;13.70;99.90;;;;;;5001126;28;21273;-60
2023/05/15 06:28:04;;;;;;;18.37;17.07;;;13.70;99.90;;;;;;5000827;28;20179;-56
2023/05/15 06:30:30;;;;;;;18.50;17.20;;;13.80;99.90;;;;;;5000987;28;20430;-60
2023/05/15 06:32:55;;;;;;;17.87;16.57;;;13.90;99.90;;;;;;5000840;28;20278;-59
2023/05/15 06:35:22;;;;;;;18.20;16.90;;;14.00;99.90;;;;;;5000959;28;20199;-59
2023/05/15 06:37:49;;;;;;;17.63;16.33;;;14.00;99.90;;;;;;5000757;28;20175;-57
2023/05/15 06:40:15;;;;;;;18.23;17.03;;;14.10;99.90;;;;;;5000893;28;21514;-59
2023/05/15 06:42:41;;;;;;;19.30;17.80;;;14.20;99.90;;;;;;5000578;28;20422;-59
2023/05/15 06:45:07;;;;;;;18.07;16.77;;;14.20;99.90;;;;;;4999108;28;21038;-54
2023/05/15 06:47:33;;;;;;;16.90;15.80;;;14.30;99.90;;;;;;5001460;28;21134;-59
2023/05/15 06:49:58;;;;;;;17.87;16.67;;;14.30;99.90;;;;;;5003386;28;20481;-58
2023/05/15 06:52:24;;;;;;;18.07;16.53;;;14.50;99.90;;;;;;5004703;28;20536;-58
2023/05/15 06:54:50;;;;;;;17.33;16.03;;;14.50;99.90;;;;;;5004432;28;20187;-58
2023/05/15 06:57:16;;;;;;;17.83;16.60;;;14.60;99.90;;;;;;5004487;28;20649;-59
2023/05/15 06:59:42;;;;;;;17.60;16.43;;;14.70;99.90;;;;;;5003232;28;20446;-59
2023/05/15 07:02:08;;;;;;;17.10;15.90;;;14.80;99.90;;;;;;5004352;28;20410;-58
2023/05/15 07:04:33;;;;;;;18.10;16.80;;;14.90;99.90;;;;;;5004004;28;20349;-59
2023/05/15 07:06:59;;;;;;;17.03;15.93;;;15.00;99.90;;;;;;5004383;28;20207;-59
2023/05/15 07:09:25;;;;;;;17.30;16.10;;;15.20;99.90;;;;;;5004071;28;20202;-60
2023/05/15 07:11:50;;;;;;;17.90;16.70;;;15.40;99.90;;;;;;5004439;28;20248;-58
2023/05/15 07:14:17;;;;;;;17.10;16.00;;;15.50;99.90;;;;;;5004262;28;20208;-59
2023/05/15 07:16:43;;;;;;;17.57;16.37;;;15.70;99.90;;;;;;5004174;28;20191;-52
2023/05/15 07:19:09;;;;;;;17.20;16.07;;;15.70;99.90;;;;;;5004119;28;20429;-59
2023/05/15 07:21:35;;;;;;;15.87;14.83;;;15.80;99.90;;;;;;5003522;28;20962;-55
2023/05/15 07:24:01;;;;;;;18.03;16.83;;;16.00;99.90;;;;;;5004056;28;20519;-59
2023/05/15 07:26:26;;;;;;;17.13;15.83;;;16.10;99.90;;;;;;5004010;28;20179;-55
2023/05/15 07:28:52;;;;;;;17.37;16.20;;;16.30;99.90;;;;;;5002483;28;20179;-59
2023/05/15 07:31:19;;;;;;;17.10;15.80;;;16.40;99.90;;;;;;5001785;28;20202;-59
2023/05/15 07:33:44;;;;;;;18.13;16.83;;;16.50;99.90;;;;;;5004030;28;20185;-60
2023/05/15 07:36:10;;;;;;;17.83;16.50;;;16.50;99.90;;;;;;5003751;28;20783;-60
2023/05/15 07:38:36;;;;;;;15.93;14.93;;;16.70;99.90;;;;;;5003922;28;20189;-59
2023/05/15 07:41:01;;;;;;;17.20;16.10;;;16.70;99.90;;;;;;5003708;28;20731;-57
2023/05/15 07:43:27;;;;;;;16.30;15.23;;;16.90;99.90;;;;;;5003731;28;20559;-59
2023/05/15 07:45:52;;;;;;;17.20;16.10;;;17.00;99.90;;;;;;5003705;28;20179;-50
2023/05/15 07:48:19;;;;;;;17.23;16.03;;;17.10;99.90;;;;;;5002424;28;20201;-50
2023/05/15 07:50:46;;;;;;;17.07;15.87;;;17.20;99.90;;;;;;5002896;28;20320;-49
2023/05/15 07:53:17;;;;;;;17.13;15.93;;;17.20;99.90;;;;;;5003095;28;20429;-52
2023/05/15 07:55:43;;;;;;;17.90;16.70;;;17.30;99.90;;;;;;5002987;28;20544;-50
2023/05/15 07:58:09;;;;;;;17.07;15.87;;;17.40;99.90;;;;;;5002772;28;20916;-49
2023/05/15 08:00:35;;;;;;;18.07;16.77;;;17.40;99.90;;;;;;5003560;28;20417;-50
2023/05/15 08:03:01;;;;;;;17.57;16.27;;;17.60;99.90;;;;;;5002981;28;20183;-52
2023/05/15 08:05:28;;;;;;;17.57;16.27;;;17.70;99.90;;;;;;5003385;28;20418;-52
2023/05/15 08:07:54;;;;;;;18.17;16.87;;;17.80;99.90;;;;;;5003180;28;20544;-48
2023/05/15 08:10:20;;;;;;;16.60;15.50;;;18.00;99.90;;;;;;5003232;28;20505;-51
2023/05/15 08:12:46;;;;;;;17.47;16.20;;;18.20;99.90;;;;;;5003391;28;20420;-50
2023/05/15 08:15:12;;;;;;;17.23;16.13;;;18.30;99.90;;;;;;4985353;28;20195;-48
2023/05/15 08:17:38;;;;;;;17.40;16.20;;;18.20;99.90;;;;;;5003161;28;20480;-47
2023/05/15 08:20:04;;;;;;;17.60;16.47;;;18.20;99.90;;;;;;5003403;28;20179;-51
2023/05/15 08:22:30;;;;;;;18.27;17.07;;;18.30;99.90;;;;;;4999489;28;20512;-47
2023/05/15 08:24:57;;;;;;;17.67;16.47;;;18.40;99.90;;;;;;5001359;28;20484;-46
2023/05/15 08:27:22;;;;;;;17.80;16.67;;;18.30;99.90;;;;;;5003219;28;20262;-47
2023/05/15 08:29:48;;;;;;;17.20;16.20;;;18.40;99.90;;;;;;5002480;28;20420;-53
2023/05/15 08:32:13;;;;;;;17.67;16.57;;;18.30;99.90;;;;;;5001683;28;20642;-49
2023/05/15 08:34:39;;;;;;;17.50;16.40;;;18.30;99.90;;;;;;5001085;28;20195;-47
2023/05/15 08:37:05;;;;;;;18.40;17.30;;;18.50;99.90;;;;;;5002472;28;20183;-50
2023/05/15 08:39:31;;;;;;;18.87;17.57;;;18.50;99.70;;;;;;5001562;28;20187;-47
2023/05/15 08:42:06;;;;;;;17.90;16.80;;;18.40;98.70;;;;;;5000089;28;20508;-60
2023/05/15 08:44:32;;;;;;;17.13;15.90;;;18.40;99.10;;;;;;5000917;28;20213;-59
2023/05/15 08:46:58;;;;;;;18.67;17.53;;;18.40;99.90;;;;;;5001278;28;20402;-59
2023/05/15 08:49:49;;;;;;;18.10;16.90;;;18.30;99.90;;;;;;5000521;28;20466;-59
2023/05/15 08:52:15;;;;;;;17.80;16.50;;;18.30;99.90;;;;;;4998832;28;20438;-60
2023/05/15 08:54:41;;;;;;;18.30;17.10;;;18.30;99.80;;;;;;4975877;28;20457;-59
2023/05/15 08:57:08;;;;;;;18.10;16.90;;;18.20;99.90;;;;;;5001511;28;20846;-60
2023/05/15 08:59:34;;;;;;;18.10;17.00;;;18.20;99.90;;;;;;5000600;28;20995;-60
2023/05/15 09:02:00;;;;;;;19.03;17.67;;;18.30;99.90;;;;;;5001035;28;20440;-61
2023/05/15 09:04:26;;;;;;;17.60;16.40;;;18.30;99.10;;;;;;5000468;28;20218;-59
2023/05/15 09:06:52;;;;;;;18.40;17.20;;;18.40;99.10;;;;;;5000557;28;20452;-57
2023/05/15 09:09:19;;;;;;;17.83;16.67;;;18.40;99.40;;;;;;4987970;28;20176;-59
2023/05/15 09:11:47;;;;;;;17.73;16.50;;;18.50;99.20;;;;;;4998389;28;20428;-59
2023/05/15 09:14:13;;;;;;;18.83;17.43;;;18.60;99.40;;;;;;5000673;28;20421;-59
2023/05/15 09:16:39;;;;;;;17.30;16.27;;;18.50;99.20;;;;;;5000428;28;20425;-58
2023/05/15 09:19:06;;;;;;;18.23;17.13;;;18.50;98.90;;;;;;4997806;28;20438;-53
2023/05/15 09:21:32;;;;;;;17.50;16.40;;;18.70;98.60;;;;;;4999399;28;20727;-60
2023/05/15 09:24:13;;;;;;;18.20;17.00;;;18.70;98.20;;;;;;5000495;28;20469;-56
2023/05/15 09:26:39;;;;;;;18.37;17.17;;;18.80;98.60;;;;;;5001159;28;20469;-60
2023/05/15 09:29:04;;;;;;;18.23;17.13;;;18.90;98.00;;;;;;4999884;28;20449;-59
2023/05/15 09:31:30;;;;;;;18.80;17.70;;;18.90;97.80;;;;;;5000778;28;20187;-58
2023/05/15 09:34:00;;;;;;;18.27;17.07;;;19.00;98.30;;;;;;5001448;28;20206;-59
2023/05/15 09:36:27;;;;;;;18.10;16.90;;;19.00;97.80;;;;;;4999775;28;20174;-59
2023/05/15 09:38:58;;;;;;;18.00;16.80;;;19.10;97.20;;;;;;4997656;28;21018;-59
2023/05/15 09:41:28;;;;;;;18.33;17.13;;;19.20;96.20;;;;;;5000906;28;20504;-59
2023/05/15 09:43:55;;;;;;;18.63;17.43;;;19.30;95.60;;;;;;5000837;28;20454;-59
2023/05/15 09:46:22;;;;;;;18.20;17.10;;;19.50;94.40;;;;;;5000741;28;20418;-59
2023/05/15 09:48:48;;;;;;;19.93;18.63;;;19.60;93.30;;;;;;5000050;28;20445;-58
2023/05/15 09:51:18;;;;;;;19.13;17.73;;;19.60;93.50;;;;;;4999965;28;20535;-59
2023/05/15 09:53:54;;;;;;;19.23;18.03;;;19.90;92.60;;;;;;5000242;28;20418;-59
2023/05/15 09:56:20;;;;;;;19.80;18.50;;;20.00;92.30;;;;;;5000695;28;20432;-58
2023/05/15 09:58:57;;;;;;;16.67;15.57;;;20.10;90.60;;;;;;5000477;28;20418;-60
2023/05/15 10:01:24;;;;;;;19.23;18.03;;;20.30;90.90;;;;;;5000750;28;20409;-59
2023/05/15 10:04:05;;;;;;;19.60;18.23;;;20.40;89.60;;;;;;5000171;28;20539;-59
2023/05/15 10:06:35;;;;;;;19.13;17.93;;;20.60;87.80;;;;;;4995645;28;20438;-60
2023/05/15 10:09:02;;;;;;;20.33;18.93;;;20.70;83.80;;;;;;5000041;28;20426;-59
2023/05/15 10:11:33;;;;;;;18.80;17.60;;;20.70;84.20;;;;;;5000867;28;20920;-60
2023/05/15 10:13:59;;;;;;;19.87;18.10;;;21.00;84.60;;;;;;5000185;28;20418;-59
2023/05/15 10:16:26;;;;;;;18.60;17.20;;;21.40;77.10;;;;;;4981947;28;20446;-58
2023/05/15 10:18:52;;;;;;;19.37;18.10;;;21.50;76.60;;;;;;4999867;28;20449;-57
2023/05/15 10:21:19;;;;;;;18.47;17.33;;;21.60;75.40;;;;;;5000126;28;20939;-59
2023/05/15 10:23:46;;;;;;;18.33;17.10;;;21.50;74.20;;;;;;5000226;28;21140;-59
2023/05/15 10:26:32;;;;;;;18.37;17.17;;;21.50;71.30;;;;;;5000284;28;20479;-59
2023/05/15 10:28:59;;;;;;;18.17;17.07;;;21.20;67.30;;;;;;5000062;28;20983;-58
2023/05/15 10:31:26;;;;;;;18.03;17.00;;;21.20;65.00;;;;;;4999846;28;20441;-58
2023/05/15 10:33:54;;;;;;;17.70;16.60;;;21.30;67.10;;;;;;5000479;28;20457;-54
2023/05/15 10:36:19;;;;;;;16.70;15.70;;;21.50;70.90;;;;;;4981191;28;20438;-59
2023/05/15 10:38:46;;;;;;;17.03;16.00;;;21.90;70.80;;;;;;5000556;28;20436;-59
2023/05/15 10:41:16;;;;;;;19.00;17.80;;;22.40;63.80;;;;;;4999628;28;20441;-60
2023/05/15 10:43:42;;;;;;;18.00;16.80;;;22.50;58.50;;;;;;5000092;28;20472;-60
2023/05/15 10:46:08;;;;;;;16.87;15.87;;;22.40;58.20;;;;;;5000395;28;20477;-59
2023/05/15 10:48:35;;;;;;;18.00;16.80;;;22.50;57.30;;;;;;4997503;28;20462;-57
2023/05/15 10:51:00;;;;;;;18.87;17.67;;;22.40;58.80;;;;;;5000247;28;20461;-59
2023/05/15 10:53:26;;;;;;;17.00;16.00;;;22.80;58.00;;;;;;5000945;28;20985;-58
2023/05/15 10:55:52;;;;;;;18.00;16.70;;;22.90;56.10;;;;;;5000675;28;20277;-58
2023/05/15 10:58:22;;;;;;;18.00;16.70;;;23.00;57.00;;;;;;4999358;28;20195;-58
2023/05/15 11:00:48;;;;;;;16.87;15.87;;;23.20;55.70;;;;;;5000572;28;20190;-59
2023/05/15 11:03:14;;;;;;;17.70;16.27;;;23.30;57.00;;;;;;4999973;28;20421;-59
2023/05/15 11:06:07;;;;;;;18.10;17.00;;;23.70;55.30;;;;;;4999762;28;20214;-59
2023/05/15 11:08:32;;;;;;;17.87;16.77;;;24.40;51.80;;;;;;5000271;28;20414;-59
2023/05/15 11:10:58;;;;;;;16.60;15.47;;;24.80;48.70;;;;;;4999335;28;20445;-59
2023/05/15 11:13:24;;;;;;;16.50;15.60;;;25.00;49.20;;;;;;4999994;28;20176;-60
2023/05/15 11:15:50;;;;;;;16.63;15.63;;;25.00;45.10;;;;;;4999780;28;20541;-59
2023/05/15 11:18:16;;;;;;;17.07;15.97;;;25.00;45.10;;;;;;4999850;28;20215;-57
2023/05/15 11:21:02;;;;;;;16.33;15.37;;;25.20;45.20;;;;;;5000191;28;21375;-59
2023/05/15 11:23:28;;;;;;;15.40;14.40;;;25.60;45.30;;;;;;4999352;28;20215;-58
2023/05/15 11:25:56;;;;;;;16.93;15.93;;;26.50;41.00;;;;;;5000130;28;20416;-59
2023/05/15 11:28:23;;;;;;;15.80;14.90;;;27.30;38.40;;;;;;4999041;28;20999;-59
2023/05/15 11:30:58;;;;;;;16.03;14.90;;;27.90;36.20;;;;;;5000254;28;20426;-58
2023/05/15 11:33:27;;;;;;;15.60;14.80;;;28.10;35.90;;;;;;5001948;28;20983;-59
2023/05/15 11:35:58;;;;;;;15.63;14.73;;;27.80;33.60;;;;;;5003387;28;20442;-59
2023/05/15 11:38:25;;;;;;;15.80;15.00;;;27.50;33.30;;;;;;4985657;28;20544;-58
2023/05/15 11:40:55;;;;;;;15.10;14.03;;;27.30;33.20;;;;;;5002583;28;20448;-59
2023/05/15 11:43:23;;;;;;;15.03;14.00;;;27.30;35.10;;;;;;5002213;28;20503;-58
2023/05/15 11:45:56;;;;;;;15.20;14.40;;;27.50;34.30;;;;;;5003529;28;20417;-58
2023/05/15 11:48:23;;;;;;;14.57;13.67;;;27.40;34.30;;;;;;5003095;28;20468;-56
2023/05/15 11:50:49;;;;;;;15.90;15.00;;;27.80;34.20;;;;;;5003115;28;20956;-58
2023/05/15 11:53:17;;;;;;;16.83;15.60;;;27.20;31.80;;;;;;5001576;28;20529;-58
2023/05/15 11:55:43;;;;;;;16.47;15.47;;;26.40;33.50;;;;;;5003390;28;20472;-59
2023/05/15 11:58:14;;;;;;;16.27;14.97;;;25.60;35.10;;;;;;5002688;28;21383;-59
2023/05/15 12:00:41;;;;;;;16.23;15.23;;;24.70;37.50;;;;;;5002899;28;20183;-59
2023/05/15 12:03:22;;;;;;;15.30;14.40;;;23.80;39.60;;;;;;4984886;28;20437;-59
2023/05/15 12:05:48;;;;;;;17.37;16.17;;;22.70;42.10;;;;;;5002687;28;20799;-60
2023/05/15 12:08:14;;;;;;;16.77;15.70;;;21.40;45.20;;;;;;5002398;28;20434;-59
2023/05/15 12:10:44;;;;;;;17.90;16.60;;;20.30;49.50;;;;;;4999918;28;20446;-57
2023/05/15 12:13:14;;;;;;;19.60;18.40;;;19.70;58.90;;;;;;5002509;28;20180;-57
2023/05/15 12:15:43;;;;;;;20.40;19.10;;;19.00;80.50;;;;;;4985256;28;20441;-56
2023/05/15 12:18:09;;;;;;;21.33;19.93;;;18.50;93.10;;;;;;5002898;28;20437;-53
2023/05/15 12:20:36;;;;;;;21.10;19.60;;;18.10;96.40;;;;;;5002465;28;20448;-55
2023/05/15 12:23:07;;;;;;;21.50;19.90;;;17.70;99.90;;;;;;5002517;28;20175;-57
2023/05/15 12:25:34;;;;;;;20.47;18.87;;;17.40;99.90;;;;;;5001977;28;20469;-46
2023/05/15 12:28:03;;;;;;;21.00;19.60;;;17.30;99.90;;;;;;5000630;28;20441;-50
2023/05/15 12:30:33;;;;;;;20.60;18.90;;;17.20;99.90;;;;;;5001095;28;20414;-48